FW2280 Jersey City NJ US current weather conditions

sailwx.info

Wind from 054 at 6 knots gusting 7

Air temperature 8.3° C
Dewpoint 7.7° C

Last reported at 2019-Dec-14 13:03 UTC.
Time now 2019-Dec-14 13:40 UTC

Location: N 40°42' W 074°02'.
View on Google Maps.

See reports from other nearby stations

  
Tides and Currents Weather Stations Pressure Air Temp Water Temp Dewpoint Dewpoint Depression Visibility Wind Speed Wind Dir Waves Ship Positions
date/time (UTC)wind fromknots sea level pressurealtimeterstation pressurevisibilityair tempwater tempwave heightnotes
2019-Dec-14 13:03 054 6 gusting 7 8.3
2019-Dec-14 12:58 352 3 gusting 6 8.9
2019-Dec-14 12:48 009 3 gusting 7 8.9
2019-Dec-14 12:38 338 6 gusting 9 8.9
2019-Dec-14 12:28 319 6 gusting 9 8.9
2019-Dec-14 12:18 036 8 gusting 11 8.3
2019-Dec-14 12:08 050 7 gusting 8 8.3
2019-Dec-14 11:58 042 6 gusting 9 9.4
2019-Dec-14 11:48 319 6 gusting 8 9.4
2019-Dec-14 11:38 323 5 gusting 6 10.0
2019-Dec-14 11:34 316 4 gusting 6 10.0
2019-Dec-14 11:23 001 3 gusting 7 10.0
2019-Dec-14 10:48 044 9 gusting 11 9.4
2019-Dec-14 10:38 047 8 gusting 12 10.0
2019-Dec-14 10:23 052 10 gusting 13 9.4
2019-Dec-14 10:13 039 10 gusting 13 9.4
2019-Dec-14 09:58 032 12 gusting 14 9.4
2019-Dec-14 09:48 044 12 gusting 13 9.4
2019-Dec-14 09:38 052 13 gusting 14 10.0
2019-Dec-14 09:23 044 10 gusting 13 10.0
2019-Dec-14 09:03 049 11 gusting 15 10.0
2019-Dec-14 08:53 052 12 gusting 16 10.0
2019-Dec-14 08:43 042 16 gusting 21 10.6
2019-Dec-14 08:38 053 18 gusting 26 10.6
2019-Dec-14 08:28 057 18 gusting 23 10.6
2019-Dec-14 08:18 058 18 gusting 24 10.6
2019-Dec-14 08:08 051 20 gusting 25 10.6
2019-Dec-14 07:58 058 19 gusting 27 10.0
2019-Dec-14 07:53 053 21 gusting 28 10.6
2019-Dec-14 07:43 052 24 gusting 27 10.0
2019-Dec-14 07:38 056 24 gusting 31 10.0
2019-Dec-14 07:28 053 23 gusting 28 10.0
2019-Dec-14 07:18 053 19 gusting 24 10.0
2019-Dec-14 07:08 056 13 gusting 22 10.0
2019-Dec-14 06:58 050 21 gusting 27 9.4
2019-Dec-14 06:48 049 20 gusting 29 9.4
2019-Dec-14 06:43 037 23 gusting 31 9.4
2019-Dec-14 06:34 057 21 gusting 30 9.4
2019-Dec-14 06:28 048 23 gusting 30 9.4
2019-Dec-14 06:18 053 19 gusting 25 9.4
2019-Dec-14 06:08 054 24 gusting 29 9.4
2019-Dec-14 05:58 050 24 gusting 29 9.4
2019-Dec-14 05:48 052 19 gusting 25 9.4
2019-Dec-14 05:38 053 18 gusting 22 9.4
2019-Dec-14 05:28 051 15 gusting 18 9.4
2019-Dec-14 05:18 050 8 gusting 15 9.4
2019-Dec-14 05:08 038 11 gusting 15 9.4
2019-Dec-14 04:59 041 13 gusting 19 9.4
2019-Dec-14 04:48 039 14 gusting 19 9.4
2019-Dec-14 04:38 056 17 gusting 20 9.4
2019-Dec-14 04:28 050 17 gusting 20 9.4
2019-Dec-14 04:23 053 15 gusting 20 9.4
2019-Dec-14 04:13 055 17 gusting 21 9.4
2019-Dec-14 04:03 046 17 gusting 20 9.4
2019-Dec-14 03:53 046 13 gusting 18 9.4
2019-Dec-14 03:43 050 14 gusting 19 8.9
2019-Dec-14 03:37 056 16 gusting 19 8.9
2019-Dec-14 03:23 053 15 gusting 18 8.9
2019-Dec-14 03:13 047 13 gusting 17 8.9
2019-Dec-14 03:03 046 13 gusting 16 8.9
2019-Dec-14 02:58 046 13 gusting 16 8.9
2019-Dec-14 02:53 049 12 gusting 16 8.9
2019-Dec-14 02:43 045 12 gusting 17 8.3
2019-Dec-14 02:34 051 13 gusting 17 8.3
2019-Dec-14 02:28 052 13 gusting 17 8.3
2019-Dec-14 02:18 046 13 gusting 17 8.9
2019-Dec-14 02:08 053 14 gusting 21 8.9
2019-Dec-14 01:58 053 15 gusting 19 8.9
2019-Dec-14 01:49 049 14 gusting 19 8.3
2019-Dec-14 01:38 045 15 gusting 19 8.9
2019-Dec-14 01:23 051 13 gusting 18 9.4
2019-Dec-14 01:18 053 13 gusting 17 8.9
2019-Dec-14 01:08 046 13 gusting 17 8.9
2019-Dec-14 01:03 053 13 gusting 17 8.9
2019-Dec-14 00:53 057 12 gusting 13 8.9
2019-Dec-14 00:48 053 11 gusting 13 8.9
2019-Dec-14 00:33 057 10 gusting 12 8.9
2019-Dec-14 00:23 056 9 gusting 10 8.9
2019-Dec-14 00:13 064 7 gusting 10 8.9
2019-Dec-14 00:08 068 5 gusting 7 8.9
2019-Dec-14 00:03 082 4 gusting 7 8.9
2019-Dec-13 23:48 037 6 gusting 10 7.8
2019-Dec-13 23:38 359 5 gusting 10 7.8
2019-Dec-13 23:28 033 6 gusting 10 7.8
2019-Dec-13 23:18 041 6 gusting 10 7.8
2019-Dec-13 23:08 036 6 gusting 10 7.8
2019-Dec-13 22:59 046 6 gusting 10 7.8
2019-Dec-13 22:53 041 8 gusting 10 7.8
2019-Dec-13 22:43 045 8 gusting 12 7.8
2019-Dec-13 22:38 048 8 gusting 13 7.8
2019-Dec-13 22:33 056 7 gusting 11 7.8
2019-Dec-13 22:23 057 7 gusting 13 7.8
2019-Dec-13 22:18 063 8 gusting 13 7.2
2019-Dec-13 22:08 054 11 gusting 13 7.2
2019-Dec-13 21:58 052 11 gusting 14 7.2
2019-Dec-13 21:48 051 12 gusting 15 7.2
2019-Dec-13 21:38 056 11 gusting 13 7.2
2019-Dec-13 21:28 053 12 gusting 14 7.8
2019-Dec-13 21:18 058 13 gusting 14 7.2
2019-Dec-13 21:08 042 10 gusting 13 7.2
2019-Dec-13 20:58 043 9 gusting 12 7.2
2019-Dec-13 20:48 041 8 gusting 12 7.2
2019-Dec-13 20:38 049 9 gusting 12 7.2
2019-Dec-13 20:28 035 7 gusting 11 7.2
2019-Dec-13 20:23 014 7 gusting 11 7.2
2019-Dec-13 20:13 006 7 gusting 11 7.2
2019-Dec-13 20:03 033 7 gusting 11 7.2
2019-Dec-13 19:53 032 9 gusting 12 7.2
2019-Dec-13 19:43 044 9 gusting 12 7.2
2019-Dec-13 19:33 046 9 gusting 12 6.7
2019-Dec-13 19:28 054 10 gusting 12 6.7
2019-Dec-13 19:18 047 7 gusting 11 6.7
2019-Dec-13 19:08 043 6 gusting 11 6.7
2019-Dec-13 18:58 039 6 gusting 12 6.7
2019-Dec-13 18:48 039 9 gusting 12 6.7
2019-Dec-13 18:33 035 7 gusting 9 6.7
2019-Dec-13 18:28 034 7 gusting 9 7.2
2019-Dec-13 18:23 056 1 gusting 6 7.2
2019-Dec-13 18:13 349 5 gusting 9 7.2
2019-Dec-13 18:03 028 3 gusting 6 7.2
2019-Dec-13 17:53 032 4 gusting 8 6.7
2019-Dec-13 17:49 015 6 gusting 8 6.7
2019-Dec-13 17:28 059 6 gusting 9 6.7
2019-Dec-13 17:20 046 8 gusting 10 6.7
2019-Dec-13 17:13 035 6 gusting 10 7.2
2019-Dec-13 17:03 122 6 gusting 13 7.8
2019-Dec-13 16:53 091 10 gusting 15 7.8
2019-Dec-13 16:43 110 8 gusting 13 7.8
2019-Dec-13 16:33 072 9 gusting 13 7.8
2019-Dec-13 16:23 111 6 gusting 12 6.1
2019-Dec-13 16:14 049 7 gusting 9 6.1
2019-Dec-13 16:03 046 4 gusting 9 6.1
2019-Dec-13 15:53 044 6 gusting 9 5.0
2019-Dec-13 15:43 273 4.4
2019-Dec-13 15:38 300 0 gusting 4 4.4
2019-Dec-13 15:28 004 6 gusting 7 4.4
2019-Dec-13 15:13 032 3.9
2019-Dec-13 15:03 325 2 gusting 8 3.9
2019-Dec-13 14:58 024 6 gusting 8 3.3
2019-Dec-13 14:53 032 6 gusting 8 3.3
2019-Dec-13 14:43 004 6 gusting 8 3.3
2019-Dec-13 14:33 348 4 gusting 6 2.8
2019-Dec-13 14:28 331 5 gusting 8 2.8
2019-Dec-13 14:18 319 7 gusting 10 2.2
2019-Dec-13 14:13 325 6 gusting 7 2.8
2019-Dec-13 14:03 326 6 gusting 6 2.2
2019-Dec-13 13:53 319 6 gusting 7 2.2
2019-Dec-13 13:43 312 4 gusting 6 2.2
2019-Dec-13 13:34 296 4 gusting 7 2.2
2019-Dec-13 13:28 304 6 gusting 7 2.2
2019-Dec-13 13:19 301 4 gusting 5 2.2
2019-Dec-13 13:08 332 0 gusting 3 1.7
2019-Dec-13 12:58 299 3 gusting 4 1.7
2019-Dec-13 12:38 307 2 gusting 5 1.7
2019-Dec-13 12:33 285 3 gusting 5 1.7
2019-Dec-13 12:19 293 3 gusting 4 1.7
2019-Dec-13 12:09 284 3 gusting 5 1.1
2019-Dec-13 12:03 280 3 gusting 5 1.1
2019-Dec-13 11:54 300 4 gusting 5 1.7
2019-Dec-13 11:43 293 4 gusting 6 1.7
2019-Dec-13 11:34 300 4 gusting 7 1.7
2019-Dec-13 11:23 039 2 gusting 9 3.9
2019-Dec-13 11:13 084 1 gusting 5 2.8
2019-Dec-13 11:04 295 0 gusting 8 2.8
2019-Dec-13 10:53 122 1.7
2019-Dec-13 10:48 295 1 gusting 2 1.1
2019-Dec-13 10:39 290 2 gusting 6 1.1
2019-Dec-13 10:29 299 3 gusting 5 1.7
2019-Dec-13 10:24 291 2 gusting 4 1.7
2019-Dec-13 10:14 271 2 gusting 5 2.2
2019-Dec-13 10:03 291 2 gusting 6 3.3
2019-Dec-13 09:54 034 5 gusting 9 3.3
2019-Dec-13 09:44 056 6 gusting 8 3.3
2019-Dec-13 09:34 096 2 gusting 7 3.3
2019-Dec-13 09:29 060 6 gusting 9 2.8
2019-Dec-13 09:19 050 7 gusting 10 2.8
2019-Dec-13 09:08 055 6 gusting 10 2.8
2019-Dec-13 08:58 056 7 gusting 9 2.8
2019-Dec-13 08:48 065 5 gusting 7 2.8
2019-Dec-13 08:39 062 7 gusting 10 2.8
2019-Dec-13 08:23 038 6 gusting 11 2.2
2019-Dec-13 08:13 027 7 gusting 11 2.2
2019-Dec-13 08:04 040 10 gusting 13 2.2
2019-Dec-13 07:54 046 8 gusting 10 2.2
2019-Dec-13 07:48 047 7 gusting 11 2.2
2019-Dec-13 07:38 042 9 gusting 12 1.7
2019-Dec-13 07:29 044 9 gusting 12 1.7
2019-Dec-13 07:19 039 7 gusting 13 1.7
2019-Dec-13 07:03 358 1 gusting 3 1.7
2019-Dec-13 06:49 349 1 gusting 3 1.7
2019-Dec-13 06:39 329 2 gusting 3 1.7
2019-Dec-13 06:29 311 2 gusting 3 1.7
2019-Dec-13 06:18 310 1 gusting 2 1.7
2019-Dec-13 06:09 338 0 gusting 2 1.1
2019-Dec-13 05:59 345 1.1
2019-Dec-13 05:49 330 1 gusting 3 1.1
2019-Dec-13 05:43 322 1 gusting 4 0.6
2019-Dec-13 05:34 328 2 gusting 4 0.6
2019-Dec-13 05:28 314 3 gusting 4 0.6
2019-Dec-13 05:19 310 3 gusting 6 1.1
2019-Dec-13 05:09 293 2 gusting 4 1.1
2019-Dec-13 04:59 281 2 gusting 5 1.1
2019-Dec-13 04:49 293 2 gusting 6 1.1
2019-Dec-13 04:43 284 2 gusting 4 1.1
2019-Dec-13 04:33 277 4 gusting 7 2.2
2019-Dec-13 04:28 224 6 gusting 7 2.2
2019-Dec-13 04:19 171 4 gusting 10 2.2
2019-Dec-13 04:09 153 3 gusting 6 2.2
2019-Dec-13 03:59 157 4 gusting 6 2.2
2019-Dec-13 03:48 165 4 gusting 6 2.2
2019-Dec-13 03:39 144 6 gusting 8 1.7
2019-Dec-13 03:19 138 5 gusting 7 1.7
2019-Dec-13 03:09 148 6 gusting 7 1.7
2019-Dec-13 02:59 136 4 gusting 6 1.7
2019-Dec-13 02:49 137 5 gusting 7 1.7
2019-Dec-13 02:43 126 6 gusting 7 1.7
2019-Dec-13 02:34 130 5 gusting 6 1.7
2019-Dec-13 02:24 158 2 gusting 6 1.1
2019-Dec-13 02:14 158 3 gusting 6 1.1
2019-Dec-13 02:04 120 4 gusting 6 1.1
2019-Dec-13 01:58 138 4 gusting 8 1.1
2019-Dec-13 01:49 122 6 gusting 8 1.1
2019-Dec-13 01:29 151 6 gusting 9 1.1
2019-Dec-13 01:24 132 6 gusting 9 1.1
2019-Dec-13 01:18 149 6 gusting 9 1.1
2019-Dec-13 01:08 172 5 gusting 8 1.1
2019-Dec-13 01:03 164 6 gusting 10 1.1
2019-Dec-13 00:54 181 7 gusting 10 1.1
2019-Dec-13 00:44 181 7 gusting 10 1.1
2019-Dec-13 00:34 193 6 gusting 10 1.1
2019-Dec-13 00:28 164 7 gusting 10 1.1
2019-Dec-13 00:18 184 6 gusting 9 1.1
2019-Dec-13 00:08 162 6 gusting 8 0.6
2019-Dec-12 23:59 163 6 gusting 7 0.6
2019-Dec-12 23:49 137 4 gusting 8 0.6
2019-Dec-12 23:38 155 4 gusting 7 0.6
2019-Dec-12 23:32 175 4 gusting 6 0.6
2019-Dec-12 23:18 174 5 gusting 7 0.6
2019-Dec-12 23:08 165 6 gusting 8 0.6
2019-Dec-12 22:58 181 6 gusting 9 0.6
2019-Dec-12 22:50 233 4 gusting 8 0.6
2019-Dec-12 22:38 210 7 gusting 10 0.6
2019-Dec-12 22:28 202 7 gusting 11 0.6
2019-Dec-12 22:18 245 5 gusting 10 0.6
2019-Dec-12 22:08 229 6 gusting 9 0.6
2019-Dec-12 21:58 231 6 gusting 10 0.6
2019-Dec-12 21:48 229 7 gusting 11 0.6
2019-Dec-12 21:38 232 7 gusting 11 1.1
2019-Dec-12 21:28 217 8 gusting 10 1.1
2019-Dec-12 21:23 230 5 gusting 6 1.1
2019-Dec-12 21:13 218 4 gusting 7 1.1
2019-Dec-12 21:03 227 2 gusting 7 1.1
2019-Dec-12 20:53 229 4 gusting 6 1.7
2019-Dec-12 20:43 229 2 gusting 4 1.7
2019-Dec-12 20:33 248 0 gusting 5 1.7
2019-Dec-12 20:23 275 0 gusting 6 1.7
2019-Dec-12 20:13 221 2 gusting 6 1.7
2019-Dec-12 20:03 272 4 gusting 6 1.7
2019-Dec-12 19:53 235 3 gusting 5 1.7
2019-Dec-12 19:43 269 1 gusting 6 1.7
2019-Dec-12 19:33 297 2 gusting 5 1.1
2019-Dec-12 19:28 268 1 gusting 6 1.1
2019-Dec-12 19:18 219 5 gusting 6 1.7
2019-Dec-12 19:08 283 1.7
2019-Dec-12 18:58 289 3 gusting 5 1.1
2019-Dec-12 18:53 288 2 gusting 5 1.1
2019-Dec-12 18:43 301 1 gusting 6 0.6
2019-Dec-12 18:33 008 1 gusting 6 0.6
2019-Dec-12 18:28 027 3 gusting 5 0.6
2019-Dec-12 18:18 047 2 gusting 8 0.6
2019-Dec-12 18:08 352 3 gusting 7 0.6
2019-Dec-12 17:58 338 4 gusting 9 0.6
2019-Dec-12 17:48 343 7 gusting 11 -0.0
2019-Dec-12 17:38 001 9 gusting 14 -0.0
2019-Dec-12 17:28 035 7 gusting 13 -0.0
2019-Dec-12 17:18 031 6 gusting 11 -0.0
2019-Dec-12 17:08 053 6 gusting 11 -0.6
2019-Dec-12 16:58 034 7 gusting 14 -0.6
2019-Dec-12 16:48 355 7 gusting 13 -0.6
2019-Dec-12 16:43 345 9 gusting 15 -0.6
2019-Dec-12 16:33 311 10 gusting 13 -1.1
2019-Dec-12 16:23 359 9 gusting 13 -1.1
2019-Dec-12 16:13 008 6 gusting 13 -1.1
2019-Dec-12 16:03 338 8 gusting 16 -1.1
2019-Dec-12 15:53 346 12 gusting 18 -1.7
2019-Dec-12 15:48 359 12 gusting 16 -1.7
2019-Dec-12 15:38 044 10 gusting 18 -1.7
2019-Dec-12 15:28 359 8 gusting 13 -1.7
2019-Dec-12 15:18 051 11 gusting 15 -1.7
2019-Dec-12 15:08 058 9 gusting 13 -2.2
2019-Dec-12 14:58 353 8 gusting 17 -2.2
2019-Dec-12 14:48 004 12 gusting 19 -2.2
2019-Dec-12 14:43 331 13 gusting 19 -2.2
2019-Dec-12 14:33 016 12 gusting 20 -2.2
2019-Dec-12 14:28 018 13 gusting 20 -2.8
2019-Dec-12 14:23 359 7 gusting 16 -2.8
2019-Dec-12 14:13 349 7 gusting 17 -2.8
2019-Dec-12 14:03 360 11 gusting 19 -2.8
2019-Dec-12 13:48 344 10 gusting 17 -2.8
2019-Dec-12 13:38 027 13 gusting 22 -2.8
2019-Dec-12 13:32 349 17 gusting 22 -2.8
2019-Dec-12 13:23 350 13 gusting 17 -2.8
2019-Dec-12 13:13 355 11 gusting 17 -2.8
2019-Dec-12 13:03 352 6 gusting 12 -2.8